createdAt,value
2019-04-11T00:02:06.708Z,4.02
2019-04-11T00:04:36.394Z,4.06
2019-04-11T00:07:06.043Z,4.12
2019-04-11T00:09:35.572Z,4.06
2019-04-11T00:12:06.314Z,4.03
2019-04-11T00:14:35.901Z,3.87
2019-04-11T00:17:05.806Z,3.93
2019-04-11T00:19:35.811Z,3.87
2019-04-11T00:22:05.698Z,3.72
2019-04-11T00:24:35.208Z,3.79
2019-04-11T00:27:04.674Z,3.71
2019-04-11T00:29:34.474Z,3.68
2019-04-11T00:32:06.504Z,3.66
2019-04-11T00:34:35.284Z,3.40
2019-04-11T00:37:05.151Z,3.51
2019-04-11T00:39:35.387Z,3.75
2019-04-11T00:42:06.095Z,3.58
2019-04-11T00:44:35.777Z,3.78
2019-04-11T00:47:05.153Z,3.79
2019-04-11T00:49:34.714Z,3.70
2019-04-11T00:52:04.576Z,3.64
2019-04-11T00:54:35.249Z,3.66
2019-04-11T00:57:04.664Z,3.66
2019-04-11T00:59:34.222Z,3.62
2019-04-11T01:02:03.555Z,3.54
2019-04-11T01:04:33.045Z,3.41
2019-04-11T01:07:02.751Z,3.47
2019-04-11T01:09:32.639Z,3.45
2019-04-11T01:12:02.639Z,3.58
2019-04-11T01:14:32.191Z,3.58
2019-04-11T01:17:01.570Z,3.56
2019-04-11T01:19:31.017Z,3.40
2019-04-11T01:22:01.249Z,3.46
2019-04-11T01:24:50.286Z,3.50
2019-04-11T01:27:19.897Z,3.38
2019-04-11T01:29:49.737Z,3.34
2019-04-11T01:32:20.210Z,3.46
2019-04-11T01:34:50.854Z,3.34
2019-04-11T01:37:21.762Z,3.35
2019-04-11T01:39:59.253Z,3.31
2019-04-11T01:42:29.671Z,3.34
2019-04-11T01:44:59.104Z,3.30
2019-04-11T01:47:46.907Z,2.98
2019-04-11T01:50:20.976Z,2.94
2019-04-11T01:52:50.847Z,2.89
2019-04-11T01:55:20.698Z,2.94
2019-04-11T01:57:51.966Z,2.86
2019-04-11T02:00:37.197Z,3.06
2019-04-11T02:03:07.160Z,2.89
2019-04-11T02:05:36.960Z,2.82
2019-04-11T02:08:07.127Z,2.77
2019-04-11T02:10:37.121Z,2.61
2019-04-11T02:13:07.865Z,2.45
2019-04-11T02:15:38.706Z,2.88
2019-04-11T02:18:08.207Z,2.89
2019-04-11T02:20:38.997Z,2.69
2019-04-11T02:23:15.196Z,2.78
2019-04-11T02:26:03.012Z,2.83
2019-04-11T02:28:32.909Z,2.91
2019-04-11T02:31:04.610Z,2.97
2019-04-11T02:33:34.857Z,2.75
2019-04-11T02:36:05.706Z,2.65
2019-04-11T02:38:37.353Z,2.70
2019-04-11T02:41:08.593Z,2.63
2019-04-11T02:43:40.184Z,2.65
2019-04-11T02:46:19.792Z,2.58
2019-04-11T02:48:40.802Z,2.53
2019-04-11T02:51:12.374Z,2.61
2019-04-11T02:53:42.009Z,2.52
2019-04-11T02:56:12.582Z,2.36
2019-04-11T02:58:44.019Z,2.26
2019-04-11T03:01:13.784Z,2.25
2019-04-11T03:03:43.313Z,2.23
2019-04-11T03:06:12.814Z,2.13
2019-04-11T03:08:43.566Z,2.10
2019-04-11T03:11:14.386Z,1.99
2019-04-11T03:13:44.962Z,1.90
2019-04-11T03:16:29.992Z,1.91
2019-04-11T03:19:06.959Z,1.64
2019-04-11T03:21:21.822Z,1.60
2019-04-11T03:23:53.936Z,1.77
2019-04-11T03:26:25.043Z,1.74
2019-04-11T03:28:57.433Z,1.56
2019-04-11T03:32:05.903Z,1.48
2019-04-11T03:35:03.233Z,1.49
2019-04-11T03:37:13.670Z,1.60
2019-04-11T03:39:21.612Z,1.76
2019-04-11T03:41:51.871Z,1.73
2019-04-11T03:44:15.969Z,1.62
2019-04-11T03:46:51.065Z,1.58
2019-04-11T03:49:20.714Z,1.46
2019-04-11T03:51:41.421Z,1.43
2019-04-11T03:54:11.616Z,1.45
2019-04-11T03:56:43.138Z,1.27
2019-04-11T03:59:16.351Z,1.16
2019-04-11T04:01:44.630Z,1.22
2019-04-11T04:04:19.328Z,1.15
2019-04-11T04:06:47.928Z,1.30
2019-04-11T04:09:19.444Z,1.33
2019-04-11T04:11:51.856Z,1.41
2019-04-11T04:14:42.851Z,1.43
2019-04-11T04:17:35.239Z,1.25
2019-04-11T04:20:30.742Z,1.49
2019-04-11T04:23:10.266Z,1.32
2019-04-11T04:25:45.000Z,1.40
2019-04-11T04:28:14.258Z,1.44
2019-04-11T04:30:45.313Z,1.35
2019-04-11T04:33:16.863Z,1.34
2019-04-11T04:35:47.547Z,1.26
2019-04-11T04:38:18.909Z,1.31
2019-04-11T04:41:05.444Z,1.38
2019-04-11T04:43:20.645Z,1.36
2019-04-11T04:46:08.546Z,1.39
2019-04-11T04:48:24.755Z,1.38
2019-04-11T04:50:54.431Z,1.23
2019-04-11T04:53:25.725Z,1.17
2019-04-11T04:55:54.494Z,1.20
2019-04-11T04:58:24.880Z,1.09
2019-04-11T05:00:56.672Z,1.21
2019-04-11T05:03:26.764Z,1.26
2019-04-11T05:05:56.206Z,1.21
2019-04-11T05:08:27.140Z,1.15
2019-04-11T05:10:57.878Z,1.28
2019-04-11T05:14:25.257Z,1.30
2019-04-11T05:16:54.930Z,1.25
2019-04-11T05:19:25.456Z,1.25
2019-04-11T05:21:55.019Z,1.25
2019-04-11T05:24:24.450Z,1.34
2019-04-11T05:26:53.910Z,1.35
2019-04-11T05:29:23.234Z,1.52
2019-04-11T05:31:52.607Z,1.59
2019-04-11T05:34:21.997Z,1.61
2019-04-11T05:36:51.362Z,1.68
2019-04-11T05:39:20.714Z,1.77
2019-04-11T05:41:51.317Z,1.81
2019-04-11T05:44:21.198Z,2.02
2019-04-11T05:46:57.206Z,1.93
2019-04-11T05:49:29.081Z,2.05
2019-04-11T05:52:03.986Z,2.23
2019-04-11T05:54:49.334Z,2.25
2019-04-11T05:57:22.641Z,2.41
2019-04-11T05:59:53.095Z,2.59
2019-04-11T06:02:33.655Z,2.97
2019-04-11T06:05:31.804Z,3.41
2019-04-11T06:08:00.426Z,3.75
2019-04-11T06:10:54.699Z,4.71
2019-04-11T06:13:28.944Z,5.98
2019-04-11T06:16:01.399Z,7.74
2019-04-11T06:18:48.468Z,9.32
2019-04-11T06:21:22.201Z,9.39
2019-04-11T06:24:14.212Z,9.79
2019-04-11T06:26:47.072Z,9.58
2019-04-11T06:29:31.262Z,10.39
2019-04-11T06:32:19.160Z,10.66
2019-04-11T06:34:57.763Z,10.69
2019-04-11T06:37:45.678Z,11.76
2019-04-11T06:40:33.232Z,12.15
2019-04-11T06:43:09.913Z,12.92
2019-04-11T06:45:50.374Z,11.79
2019-04-11T06:48:50.683Z,11.06
2019-04-11T06:51:32.669Z,12.36
2019-04-11T06:54:19.528Z,12.25
2019-04-11T06:56:51.031Z,12.39
2019-04-11T06:59:34.480Z,13.40
2019-04-11T07:02:18.037Z,14.57
2019-04-11T07:04:55.139Z,13.46
2019-04-11T07:07:28.726Z,13.41
2019-04-11T07:10:02.243Z,13.32
2019-04-11T07:12:43.895Z,15.30
2019-04-11T07:15:27.249Z,15.17
2019-04-11T07:18:14.188Z,14.86
2019-04-11T07:20:56.105Z,15.26
2019-04-11T07:23:44.542Z,16.16
2019-04-11T07:26:25.277Z,15.93
2019-04-11T07:29:23.841Z,15.33
2019-04-11T07:32:18.322Z,15.23
2019-04-11T07:35:05.015Z,15.61
2019-04-11T07:37:53.580Z,15.57
2019-04-11T07:40:41.194Z,16.31
2019-04-11T07:43:19.379Z,17.01
2019-04-11T07:46:25.194Z,16.52
2019-04-11T07:49:01.494Z,15.84
2019-04-11T07:51:32.776Z,17.65
2019-04-11T07:54:04.759Z,15.91
2019-04-11T07:56:42.154Z,17.92
2019-04-11T07:59:31.380Z,18.59
2019-04-11T08:02:26.871Z,16.75
2019-04-11T08:05:13.851Z,16.95
2019-04-11T08:08:06.261Z,17.48
2019-04-11T08:10:46.800Z,19.17
2019-04-11T08:13:24.122Z,18.52
2019-04-11T08:16:20.393Z,17.10
2019-04-11T08:19:26.918Z,18.96
2019-04-11T08:22:08.485Z,17.17
2019-04-11T08:24:44.904Z,19.38
2019-04-11T08:27:30.252Z,18.84
2019-04-11T08:30:00.445Z,19.93
2019-04-11T08:32:58.250Z,19.46
2019-04-11T08:35:52.946Z,20.90
2019-04-11T08:38:28.966Z,19.25
2019-04-11T08:41:07.308Z,19.18
2019-04-11T08:43:37.439Z,18.13
2019-04-11T08:46:20.663Z,20.32
2019-04-11T08:48:53.082Z,20.29
2019-04-11T08:51:23.300Z,19.06
2019-04-11T08:54:23.771Z,20.03
2019-04-11T08:56:53.606Z,20.03
2019-04-11T08:59:42.029Z,20.78
2019-04-11T09:02:14.842Z,20.48
2019-04-11T09:05:11.967Z,19.31
2019-04-11T09:07:43.567Z,18.50
2019-04-11T09:10:42.367Z,21.29
2019-04-11T09:13:31.348Z,21.29
2019-04-11T09:16:39.559Z,20.37
2019-04-11T09:19:27.961Z,22.84
2019-04-11T09:22:29.017Z,21.50
2019-04-11T09:25:30.475Z,20.51
2019-04-11T09:28:17.560Z,22.63
2019-04-11T09:31:21.218Z,22.36
2019-04-11T09:34:25.839Z,22.59
2019-04-11T09:37:16.820Z,22.05
2019-04-11T09:40:19.533Z,21.83
2019-04-11T09:43:07.172Z,23.12
2019-04-11T09:45:54.287Z,21.28
2019-04-11T09:48:34.661Z,21.99
2019-04-11T09:51:35.986Z,21.71
2019-04-11T09:54:28.372Z,23.48
2019-04-11T09:57:34.826Z,22.95
2019-04-11T10:00:26.827Z,23.86
2019-04-11T10:03:13.194Z,22.72
2019-04-11T10:06:13.981Z,24.02
2019-04-11T10:08:55.888Z,23.90
2019-04-11T10:11:59.172Z,23.07
2019-04-11T10:14:31.404Z,23.23
2019-04-11T10:17:32.046Z,22.71
2019-04-11T10:20:04.712Z,22.37
2019-04-11T10:22:52.273Z,24.76
2019-04-11T10:25:39.471Z,24.25
2019-04-11T10:28:30.853Z,20.89
2019-04-11T10:31:18.249Z,21.74
2019-04-11T10:34:06.153Z,23.13
2019-04-11T10:37:01.344Z,23.61
2019-04-11T10:39:53.438Z,23.28
2019-04-11T10:42:24.700Z,24.95
2019-04-11T10:45:14.150Z,25.22
2019-04-11T10:47:44.959Z,23.73
2019-04-11T10:50:22.111Z,21.30
2019-04-11T10:52:56.823Z,22.54
2019-04-11T10:55:49.339Z,23.73
2019-04-11T10:58:24.756Z,23.71
2019-04-11T11:01:07.735Z,23.67
2019-04-11T11:04:03.286Z,22.72
2019-04-11T11:06:33.248Z,23.73
2019-04-11T11:09:14.193Z,23.48
2019-04-11T11:11:48.531Z,24.41
2019-04-11T11:14:39.633Z,24.45
2019-04-11T11:17:43.931Z,23.94
2019-04-11T11:20:22.250Z,23.74
2019-04-11T11:23:07.745Z,22.64
2019-04-11T11:25:48.591Z,25.36
2019-04-11T11:28:18.919Z,23.31
2019-04-11T11:31:05.610Z,23.14
2019-04-11T11:33:35.154Z,22.88
2019-04-11T11:36:23.617Z,23.56
2019-04-11T11:39:26.974Z,24.16
2019-04-11T11:42:22.148Z,23.26
2019-04-11T11:44:55.289Z,24.65
2019-04-11T11:47:43.133Z,24.86
2019-04-11T11:50:18.771Z,24.52
2019-04-11T11:53:08.269Z,24.31
2019-04-11T11:55:37.743Z,24.22
2019-04-11T11:58:43.481Z,24.75
2019-04-11T12:01:31.592Z,24.97
2019-04-11T12:04:32.954Z,22.54
2019-04-11T12:07:05.235Z,23.02
2019-04-11T12:09:51.009Z,23.27
2019-04-11T12:12:25.394Z,22.64
2019-04-11T12:15:16.930Z,21.59
2019-04-11T12:18:17.215Z,22.57
2019-04-11T12:20:54.276Z,21.89
2019-04-11T12:23:48.616Z,21.89
2019-04-11T12:26:14.205Z,22.87
2019-04-11T12:29:01.729Z,23.88
2019-04-11T12:31:32.101Z,25.39
2019-04-11T12:34:18.543Z,25.24
2019-04-11T12:36:50.924Z,25.16
2019-04-11T12:39:40.800Z,24.76
2019-04-11T12:42:15.469Z,23.94
2019-04-11T12:45:06.665Z,22.44
2019-04-11T12:47:39.242Z,22.84
2019-04-11T12:50:27.833Z,22.44
2019-04-11T12:53:29.072Z,21.93
2019-04-11T12:56:24.116Z,23.63
2019-04-11T12:59:11.858Z,23.79
2019-04-11T13:01:58.779Z,24.89
2019-04-11T13:04:49.922Z,25.59
2019-04-11T13:07:53.124Z,24.58
2019-04-11T13:10:47.234Z,23.90
2019-04-11T13:13:27.352Z,23.59
2019-04-11T13:16:11.075Z,22.27
2019-04-11T13:19:04.780Z,21.33
2019-04-11T13:21:44.420Z,22.12
2019-04-11T13:24:50.949Z,22.59
2019-04-11T13:27:25.499Z,22.69
2019-04-11T13:30:13.855Z,22.35
2019-04-11T13:33:00.156Z,22.76
2019-04-11T13:35:51.082Z,22.66
2019-04-11T13:38:30.127Z,21.65
2019-04-11T13:41:20.239Z,22.57
2019-04-11T13:43:58.538Z,22.01
2019-04-11T13:46:46.951Z,22.76
2019-04-11T13:49:35.770Z,23.20
2019-04-11T13:52:30.442Z,22.52
2019-04-11T13:55:03.453Z,21.39
2019-04-11T13:57:57.630Z,23.05
2019-04-11T14:00:45.610Z,21.34
2019-04-11T14:03:29.762Z,22.50
2019-04-11T14:06:02.090Z,22.22
2019-04-11T14:08:50.346Z,21.81
2019-04-11T14:11:19.726Z,22.52
2019-04-11T14:13:48.984Z,22.24
2019-04-11T14:16:20.863Z,21.19
2019-04-11T14:19:18.432Z,21.51
2019-04-11T14:21:48.807Z,21.75
2019-04-11T14:24:42.760Z,21.09
2019-04-11T14:27:31.068Z,21.62
2019-04-11T14:30:22.153Z,21.50
2019-04-11T14:32:53.902Z,22.24
2019-04-11T14:35:39.758Z,20.77
2019-04-11T14:38:17.294Z,19.66
2019-04-11T14:41:04.332Z,20.05
2019-04-11T14:43:40.133Z,18.84
2019-04-11T14:46:28.481Z,17.19
2019-04-11T14:49:14.247Z,17.38
2019-04-11T14:52:01.226Z,18.67
2019-04-11T14:57:13.823Z,18.83
2019-04-11T14:59:48.224Z,19.35
2019-04-11T15:02:38.011Z,19.92
2019-04-11T15:05:21.164Z,19.10
2019-04-11T15:07:52.008Z,17.24
2019-04-11T15:10:43.209Z,18.25
2019-04-11T15:13:17.969Z,18.11
2019-04-11T15:16:18.764Z,18.28
2019-04-11T15:18:58.943Z,18.58
2019-04-11T15:22:41.745Z,18.43
2019-04-11T15:25:30.051Z,17.53
2019-04-11T15:28:21.258Z,17.40
2019-04-11T15:31:38.840Z,17.07
2019-04-11T15:34:19.566Z,16.90
2019-04-11T15:37:11.762Z,16.17
2019-04-11T15:40:01.016Z,16.11
2019-04-11T15:42:59.119Z,16.52
2019-04-11T15:45:38.008Z,15.31
2019-04-11T15:48:26.372Z,15.42
2019-04-11T15:51:13.212Z,14.94
2019-04-11T15:54:04.693Z,14.39
2019-04-11T15:57:00.511Z,13.88
2019-04-11T15:59:58.235Z,14.04
2019-04-11T16:02:53.851Z,14.28
2019-04-11T16:05:49.337Z,13.91
2019-04-11T16:08:50.534Z,13.95
2019-04-11T16:11:40.594Z,14.07
2019-04-11T16:14:18.644Z,13.24
2019-04-11T16:17:05.676Z,12.53
2019-04-11T16:19:47.573Z,12.44
2019-04-11T16:22:32.383Z,12.14
2019-04-11T16:25:04.465Z,12.49
2019-04-11T16:28:01.636Z,11.94
2019-04-11T16:30:32.633Z,11.63
2019-04-11T16:33:22.623Z,11.24
2019-04-11T16:36:17.437Z,11.32
2019-04-11T16:39:04.553Z,11.24
2019-04-11T16:41:56.599Z,11.21
2019-04-11T16:45:18.189Z,11.28
2019-04-11T16:48:05.790Z,10.85
2019-04-11T16:50:35.145Z,11.04
2019-04-11T16:53:04.900Z,11.14
2019-04-11T16:55:36.674Z,10.64
2019-04-11T16:58:05.781Z,10.58
2019-04-11T17:00:35.357Z,10.88
2019-04-11T17:03:04.788Z,10.43
2019-04-11T17:05:35.912Z,10.84
2019-04-11T17:08:26.465Z,10.83
2019-04-11T17:11:08.369Z,10.48
2019-04-11T17:13:38.927Z,10.11
2019-04-11T17:16:11.822Z,10.00
2019-04-11T17:18:41.123Z,10.07
2019-04-11T17:21:10.820Z,10.02
2019-04-11T17:23:40.231Z,10.07
2019-04-11T17:26:09.677Z,10.01
2019-04-11T17:28:39.079Z,9.79
2019-04-11T17:31:08.366Z,9.64
2019-04-11T17:33:37.721Z,9.53
2019-04-11T17:36:07.138Z,9.33
2019-04-11T17:38:37.270Z,9.19
2019-04-11T17:41:10.881Z,9.10
2019-04-11T17:43:38.073Z,9.05
2019-04-11T17:46:07.617Z,8.94
2019-04-11T17:48:36.877Z,8.77
2019-04-11T17:51:06.275Z,8.62
2019-04-11T17:53:38.637Z,8.62
2019-04-11T17:56:08.006Z,8.38
2019-04-11T17:58:37.390Z,8.30
2019-04-11T18:01:08.053Z,8.17
2019-04-11T18:03:37.372Z,8.20
2019-04-11T18:06:06.787Z,8.02
2019-04-11T18:08:36.147Z,7.99
2019-04-11T18:11:05.540Z,7.75
2019-04-11T18:13:34.910Z,7.69
2019-04-11T18:16:04.294Z,7.52
2019-04-11T18:18:35.152Z,7.55
2019-04-11T18:21:07.355Z,7.32
2019-04-11T18:23:36.721Z,7.26
2019-04-11T18:26:06.948Z,6.98
2019-04-11T18:28:36.385Z,6.96
2019-04-11T18:31:07.747Z,6.74
2019-04-11T18:33:37.109Z,6.57
2019-04-11T18:36:07.645Z,6.39
2019-04-11T18:38:36.975Z,6.28
2019-04-11T18:41:06.696Z,6.16
2019-04-11T18:43:37.056Z,5.96
2019-04-11T18:46:06.383Z,5.81
2019-04-11T18:48:36.800Z,5.76
2019-04-11T18:51:06.135Z,5.76
2019-04-11T18:53:35.552Z,5.58
2019-04-11T18:56:05.430Z,5.50
2019-04-11T18:58:34.832Z,5.39
2019-04-11T19:01:08.879Z,5.41
2019-04-11T19:03:41.143Z,5.20
2019-04-11T19:06:12.888Z,5.40
2019-04-11T19:08:43.102Z,5.37
2019-04-11T19:11:11.184Z,5.46
2019-04-11T19:13:40.586Z,5.42
2019-04-11T19:16:10.033Z,5.39
2019-04-11T19:18:39.588Z,5.32
2019-04-11T19:21:08.852Z,5.31
2019-04-11T19:23:39.048Z,5.08
2019-04-11T19:26:09.092Z,5.21
2019-04-11T19:28:38.850Z,5.20
2019-04-11T19:31:08.168Z,5.15
2019-04-11T19:33:39.853Z,5.18
2019-04-11T19:36:10.001Z,5.11
2019-04-11T19:38:43.072Z,4.98
2019-04-11T19:41:10.738Z,5.13
2019-04-11T19:43:40.896Z,5.17
2019-04-11T19:46:10.453Z,4.89
2019-04-11T19:48:39.806Z,4.76
2019-04-11T19:51:10.996Z,4.58
2019-04-11T19:53:40.766Z,4.36
2019-04-11T19:56:18.011Z,4.28
2019-04-11T19:58:47.245Z,4.01
2019-04-11T20:01:16.901Z,3.83
2019-04-11T20:03:46.185Z,3.58
2019-04-11T20:06:15.514Z,3.58
2019-04-11T20:08:44.790Z,3.30
2019-04-11T20:11:14.142Z,3.38
2019-04-11T20:13:43.396Z,3.25
2019-04-11T20:16:13.320Z,3.13
2019-04-11T20:18:50.826Z,3.16
2019-04-11T20:21:13.747Z,2.94
2019-04-11T20:23:42.991Z,2.85
2019-04-11T20:26:12.333Z,2.87
2019-04-11T20:28:41.593Z,2.66
2019-04-11T20:31:10.922Z,2.87
2019-04-11T20:33:40.129Z,2.71
2019-04-11T20:36:11.139Z,2.47
2019-04-11T20:38:40.580Z,2.48
2019-04-11T20:41:10.022Z,2.32
2019-04-11T20:43:39.323Z,2.25
2019-04-11T20:48:30.934Z,2.26
2019-04-11T20:51:00.767Z,2.24
2019-04-11T20:53:30.013Z,2.30
2019-04-11T20:56:00.670Z,2.64
2019-04-11T20:58:30.001Z,2.93
2019-04-11T21:00:59.571Z,2.95
2019-04-11T21:03:30.217Z,3.14
2019-04-11T21:06:01.813Z,3.40
2019-04-11T21:08:33.193Z,3.46
2019-04-11T21:11:04.685Z,3.52
2019-04-11T21:13:33.133Z,3.59
2019-04-11T21:16:02.548Z,3.66
2019-04-11T21:18:31.770Z,3.75
2019-04-11T21:21:01.060Z,3.82
2019-04-11T21:23:30.476Z,3.80
2019-04-11T21:25:59.773Z,3.77
2019-04-11T21:28:30.333Z,3.70
2019-04-11T21:31:00.829Z,3.70
2019-04-11T21:33:34.000Z,3.56
2019-04-11T21:36:02.037Z,3.55
2019-04-11T21:38:31.635Z,3.55
2019-04-11T21:41:00.862Z,3.62
2019-04-11T21:43:30.119Z,3.65
2019-04-11T21:45:59.451Z,3.59
2019-04-11T21:48:28.803Z,3.57
2019-04-11T21:50:58.233Z,3.53
2019-04-11T21:53:36.452Z,3.45
2019-04-11T21:55:59.021Z,3.43
2019-04-11T21:58:28.298Z,3.41
2019-04-11T22:01:04.131Z,3.32
2019-04-11T22:03:33.614Z,3.26
2019-04-11T22:06:02.910Z,3.24
2019-04-11T22:08:34.364Z,3.22
2019-04-11T22:11:03.732Z,3.08
2019-04-11T22:13:37.993Z,2.98
2019-04-11T22:16:07.369Z,2.96
2019-04-11T22:18:37.733Z,2.93
2019-04-11T22:21:07.103Z,2.89
2019-04-11T22:23:48.139Z,2.87
2019-04-11T22:26:07.591Z,2.82
2019-04-11T22:28:36.929Z,2.88
2019-04-11T22:31:06.285Z,2.76
2019-04-11T22:33:59.108Z,2.77
2019-04-11T22:36:30.587Z,2.72
2019-04-11T22:39:01.082Z,2.64
2019-04-11T22:41:30.823Z,2.60
2019-04-11T22:44:00.235Z,2.63
2019-04-11T22:46:29.503Z,2.55
2019-04-11T22:48:58.761Z,2.53
2019-04-11T22:51:28.148Z,2.47
2019-04-11T22:54:00.447Z,2.42
2019-04-11T22:56:28.515Z,2.49
2019-04-11T22:58:57.938Z,2.42
2019-04-11T23:01:27.216Z,2.45
2019-04-11T23:03:59.600Z,2.40
2019-04-11T23:06:28.950Z,2.35
2019-04-11T23:08:58.478Z,2.28
2019-04-11T23:11:27.906Z,2.21
2019-04-11T23:13:57.401Z,2.25
2019-04-11T23:16:26.902Z,2.19
2019-04-11T23:18:57.355Z,2.18
2019-04-11T23:21:26.635Z,2.18
2019-04-11T23:23:55.887Z,2.12
2019-04-11T23:26:25.474Z,2.12
2019-04-11T23:28:54.864Z,2.07
2019-04-11T23:31:24.114Z,2.04
2019-04-11T23:33:53.458Z,1.97
2019-04-11T23:36:22.822Z,1.90
2019-04-11T23:38:52.958Z,1.91
2019-04-11T23:41:23.088Z,1.91
2019-04-11T23:43:52.504Z,1.90
2019-04-11T23:46:22.089Z,1.91
2019-04-11T23:48:54.698Z,1.78
2019-04-11T23:51:25.447Z,1.76
2019-04-11T23:53:53.686Z,1.73
2019-04-11T23:56:22.934Z,1.62
2019-04-11T23:58:52.261Z,1.65
